Time;durP1;ratioP1;P1;durP2;ratioP2;P2;SDS_P1;SDS_P2;PMS_P1;PMS_P2;Temp;Humidity;BMP_temperature;BMP_pressure;BME280_temperature;BME280_humidity;BME280_pressure;Samples;Min_cycle;Max_cycle;Signal;HPM_P1;HPM_P2
2021/04/29 00:00:36;;;;;;;6.95;3.30;;;6.90;62.90;;;;;;4946484;29;20023;-70
2021/04/29 00:03:01;;;;;;;5.18;2.80;;;6.90;63.00;;;;;;4946956;29;20014;-70
2021/04/29 00:05:28;;;;;;;6.30;3.63;;;6.90;63.10;;;;;;4946147;29;20007;-71
2021/04/29 00:07:54;;;;;;;7.40;3.13;;;6.80;63.40;;;;;;4964887;29;20067;-69
2021/04/29 00:10:22;;;;;;;8.85;3.97;;;6.80;63.30;;;;;;4964783;29;20015;-70
2021/04/29 00:12:48;;;;;;;6.10;3.00;;;6.80;63.10;;;;;;4964730;29;20039;-69
2021/04/29 00:15:14;;;;;;;9.65;4.00;;;6.80;63.20;;;;;;4956842;29;20019;-69
2021/04/29 00:17:39;;;;;;;4.60;3.08;;;6.80;63.30;;;;;;4945797;29;20019;-70
2021/04/29 00:20:07;;;;;;;8.18;3.65;;;6.80;63.30;;;;;;4945325;29;20019;-69
2021/04/29 00:22:33;;;;;;;5.30;3.42;;;6.80;63.40;;;;;;4945368;29;20064;-69
2021/04/29 00:24:59;;;;;;;11.05;3.05;;;6.80;63.80;;;;;;4945567;29;20380;-70
2021/04/29 00:27:24;;;;;;;5.55;2.92;;;6.70;64.40;;;;;;4945944;29;20003;-69
2021/04/29 00:29:50;;;;;;;5.72;2.22;;;6.70;64.90;;;;;;4945453;29;20016;-69
2021/04/29 00:32:15;;;;;;;5.10;2.85;;;6.70;65.20;;;;;;4945426;29;20012;-69
2021/04/29 00:34:41;;;;;;;5.43;3.22;;;6.70;65.70;;;;;;4945538;29;20024;-69
2021/04/29 00:37:07;;;;;;;7.35;3.65;;;6.60;66.50;;;;;;4946398;29;20012;-68
2021/04/29 00:39:32;;;;;;;6.30;3.97;;;6.50;68.00;;;;;;4946462;29;20055;-69
2021/04/29 00:41:58;;;;;;;6.93;3.95;;;6.40;69.50;;;;;;4945241;29;20336;-70
2021/04/29 00:44:23;;;;;;;6.10;3.80;;;6.30;70.40;;;;;;4946499;29;20015;-70
2021/04/29 00:46:49;;;;;;;9.15;4.47;;;6.30;71.10;;;;;;4945353;29;20008;-69
2021/04/29 00:49:16;;;;;;;6.65;4.00;;;6.30;72.30;;;;;;4929669;29;20047;-68
2021/04/29 00:51:42;;;;;;;6.30;3.88;;;6.20;72.80;;;;;;4946235;29;20011;-69
2021/04/29 00:54:07;;;;;;;7.47;4.30;;;6.20;73.60;;;;;;4949738;29;20317;-69
2021/04/29 00:56:33;;;;;;;9.30;4.45;;;6.20;74.90;;;;;;4966597;29;20019;-70
2021/04/29 00:58:59;;;;;;;4.40;3.20;;;6.20;74.70;;;;;;4958312;29;20022;-69
2021/04/29 01:01:24;;;;;;;7.38;3.63;;;6.20;75.00;;;;;;4965912;29;20032;-69
2021/04/29 01:03:50;;;;;;;6.53;3.50;;;6.20;75.50;;;;;;4967505;29;20091;-70
2021/04/29 01:06:31;;;;;;;8.02;4.53;;;6.30;75.90;;;;;;4965071;28;20058;-70
2021/04/29 01:09:02;;;;;;;10.52;4.35;;;6.20;76.10;;;;;;4935184;29;20011;-70
2021/04/29 01:11:31;;;;;;;8.45;4.38;;;6.10;76.60;;;;;;4954000;29;20015;-69
2021/04/29 01:13:58;;;;;;;10.25;4.60;;;6.10;76.80;;;;;;4964449;29;20038;-69
2021/04/29 01:16:24;;;;;;;7.85;5.07;;;6.10;77.10;;;;;;4964176;29;20074;-68
2021/04/29 01:18:51;;;;;;;6.15;4.22;;;6.10;77.40;;;;;;4980005;28;20019;-68
2021/04/29 01:21:17;;;;;;;7.45;4.40;;;6.10;77.40;;;;;;4963884;29;20026;-69
2021/04/29 01:24:08;;;;;;;7.18;4.65;;;6.20;77.00;;;;;;4963816;29;20031;-69
2021/04/29 01:27:09;;;;;;;5.73;3.63;;;6.20;76.80;;;;;;4964310;29;20088;-70
2021/04/29 01:29:35;;;;;;;8.70;4.53;;;6.20;76.50;;;;;;4887781;29;20326;-70
2021/04/29 01:32:00;;;;;;;5.97;4.05;;;6.30;76.70;;;;;;4887752;29;20089;-70
2021/04/29 01:34:28;;;;;;;6.47;3.50;;;6.30;76.70;;;;;;4889121;29;20042;-69
2021/04/29 01:36:54;;;;;;;6.70;4.10;;;6.30;76.60;;;;;;4874208;29;20037;-70
2021/04/29 01:39:19;;;;;;;6.50;3.92;;;6.20;76.90;;;;;;4871523;29;20021;-70
2021/04/29 01:41:49;;;;;;;8.23;4.75;;;6.10;77.10;;;;;;4886967;29;20029;-70
2021/04/29 01:44:16;;;;;;;9.65;4.50;;;6.10;77.40;;;;;;4887010;29;20096;-70
2021/04/29 01:46:42;;;;;;;10.27;5.00;;;6.10;77.80;;;;;;4887302;29;20017;-69
2021/04/29 01:49:09;;;;;;;8.57;5.15;;;6.00;77.90;;;;;;4871938;29;20342;-69
2021/04/29 01:51:35;;;;;;;8.80;6.00;;;6.00;78.00;;;;;;4887586;29;20029;-69
2021/04/29 01:54:01;;;;;;;9.25;5.15;;;6.00;77.90;;;;;;4887630;29;20053;-69
2021/04/29 01:56:27;;;;;;;8.50;5.00;;;6.10;77.80;;;;;;4854694;29;20086;-70
2021/04/29 01:58:53;;;;;;;9.57;5.57;;;6.10;77.60;;;;;;4869976;29;20052;-69
2021/04/29 02:01:18;;;;;;;7.38;5.25;;;6.10;77.20;;;;;;4853117;29;20029;-70
2021/04/29 02:03:44;;;;;;;11.27;5.97;;;6.10;76.50;;;;;;4913695;29;20039;-70
2021/04/29 02:06:09;;;;;;;12.00;5.38;;;6.20;76.50;;;;;;4945321;29;20007;-70
2021/04/29 02:08:35;;;;;;;8.27;5.22;;;6.20;76.10;;;;;;4945120;29;20011;-71
2021/04/29 02:11:01;;;;;;;6.95;4.80;;;6.20;76.10;;;;;;4960048;29;20321;-70
2021/04/29 02:13:28;;;;;;;8.57;5.28;;;6.20;75.80;;;;;;4944324;29;20023;-70
2021/04/29 02:16:01;;;;;;;8.00;4.95;;;6.20;75.90;;;;;;4944130;29;20313;-70
2021/04/29 02:18:27;;;;;;;8.30;5.05;;;6.20;75.80;;;;;;4946007;29;20018;-69
2021/04/29 02:20:53;;;;;;;7.45;4.78;;;6.20;75.90;;;;;;4951734;29;20015;-69
2021/04/29 02:23:20;;;;;;;8.70;5.00;;;6.20;75.80;;;;;;4966767;29;20043;-70
2021/04/29 02:25:53;;;;;;;10.55;5.53;;;6.20;75.90;;;;;;4968078;28;20011;-70
2021/04/29 02:28:19;;;;;;;11.18;5.97;;;6.20;76.00;;;;;;4966801;29;20215;-69
2021/04/29 02:30:46;;;;;;;8.85;5.78;;;6.20;76.20;;;;;;4966566;29;20011;-70
2021/04/29 02:33:12;;;;;;;9.23;5.68;;;6.10;76.70;;;;;;4966874;29;20023;-69
2021/04/29 02:35:37;;;;;;;10.18;5.35;;;6.00;77.10;;;;;;4964027;29;20181;-69
2021/04/29 02:38:03;;;;;;;5.65;3.90;;;6.00;77.00;;;;;;4947754;29;20011;-69
2021/04/29 02:40:29;;;;;;;9.43;4.63;;;6.10;77.00;;;;;;4947670;29;20027;-69
2021/04/29 02:42:54;;;;;;;8.10;4.05;;;6.10;76.70;;;;;;4949407;29;20015;-69
2021/04/29 02:45:20;;;;;;;8.90;4.60;;;6.10;76.50;;;;;;4947328;29;20191;-69
2021/04/29 02:47:50;;;;;;;7.50;4.68;;;6.10;76.40;;;;;;4947216;29;20317;-69
2021/04/29 02:50:18;;;;;;;8.50;4.75;;;6.10;76.10;;;;;;4947284;29;20016;-70
2021/04/29 02:52:44;;;;;;;8.80;5.20;;;6.00;76.10;;;;;;4948346;29;20008;-69
2021/04/29 02:55:10;;;;;;;7.70;4.90;;;6.00;76.00;;;;;;4947513;29;20079;-70
2021/04/29 02:57:36;;;;;;;8.45;5.10;;;6.00;76.00;;;;;;4950437;29;20016;-69
2021/04/29 03:00:04;;;;;;;7.45;4.75;;;6.00;75.90;;;;;;4933514;29;20024;-68
2021/04/29 03:02:30;;;;;;;7.25;4.20;;;6.00;75.70;;;;;;4950286;29;20087;-69
2021/04/29 03:04:56;;;;;;;7.53;4.13;;;6.00;75.50;;;;;;4972932;28;20012;-67
2021/04/29 03:07:21;;;;;;;7.30;4.50;;;6.10;75.40;;;;;;4966770;29;20030;-68
2021/04/29 03:09:47;;;;;;;6.22;4.43;;;6.10;75.10;;;;;;4966552;29;20321;-69
2021/04/29 03:12:13;;;;;;;6.95;4.20;;;6.10;75.30;;;;;;4967798;29;20015;-69
2021/04/29 03:14:38;;;;;;;10.23;5.85;;;6.10;75.50;;;;;;4966851;29;20015;-69
2021/04/29 03:17:04;;;;;;;11.50;6.13;;;6.00;76.20;;;;;;4967453;29;20021;-69
2021/04/29 03:19:29;;;;;;;10.02;4.95;;;5.90;76.90;;;;;;4966348;29;20245;-69
2021/04/29 03:21:55;;;;;;;8.60;5.35;;;5.90;77.30;;;;;;4965911;29;20062;-70
2021/04/29 03:24:21;;;;;;;9.02;5.30;;;5.80;77.60;;;;;;4982063;28;20086;-69
2021/04/29 03:26:46;;;;;;;9.05;5.75;;;5.70;78.10;;;;;;4967115;29;20015;-69
2021/04/29 03:29:12;;;;;;;9.77;5.05;;;5.70;78.60;;;;;;4966315;28;20016;-69
2021/04/29 03:31:37;;;;;;;12.27;6.03;;;5.70;78.70;;;;;;4950003;29;20015;-68
2021/04/29 03:34:03;;;;;;;9.00;5.88;;;5.70;78.60;;;;;;4966988;29;20023;-69
2021/04/29 03:36:29;;;;;;;12.05;5.80;;;5.70;78.40;;;;;;4964300;28;20011;-68
2021/04/29 03:38:54;;;;;;;8.50;5.40;;;5.70;78.40;;;;;;4946547;29;20023;-69
2021/04/29 03:41:20;;;;;;;7.32;5.15;;;5.70;78.30;;;;;;4946460;29;20027;-69
2021/04/29 03:43:46;;;;;;;8.18;4.93;;;5.70;78.00;;;;;;4952915;29;20011;-70
2021/04/29 03:46:11;;;;;;;9.30;4.85;;;5.80;77.90;;;;;;4965476;29;20011;-69
2021/04/29 03:48:37;;;;;;;9.43;5.10;;;5.70;77.60;;;;;;4934818;29;20020;-68
2021/04/29 03:51:03;;;;;;;8.77;5.32;;;5.80;77.30;;;;;;4946893;29;20118;-70
2021/04/29 03:53:28;;;;;;;12.65;5.82;;;5.80;77.10;;;;;;4947968;29;20034;-70
2021/04/29 03:55:54;;;;;;;8.43;4.90;;;5.80;77.00;;;;;;4947768;29;20024;-69
2021/04/29 03:58:20;;;;;;;10.18;4.88;;;5.80;77.00;;;;;;4960045;29;20086;-69
2021/04/29 04:00:45;;;;;;;8.32;5.53;;;5.80;77.00;;;;;;4961107;29;20034;-69
2021/04/29 04:03:11;;;;;;;8.70;5.53;;;5.80;77.00;;;;;;4948880;29;20020;-70
2021/04/29 04:05:36;;;;;;;7.45;4.93;;;5.80;77.20;;;;;;4930624;29;20015;-69
2021/04/29 04:08:02;;;;;;;10.00;4.97;;;5.80;77.20;;;;;;4949647;29;20095;-69
2021/04/29 04:10:28;;;;;;;8.82;5.47;;;5.80;77.10;;;;;;4946962;29;20325;-69
2021/04/29 04:12:53;;;;;;;11.70;5.75;;;5.70;77.40;;;;;;4946301;29;20027;-69
2021/04/29 04:15:19;;;;;;;8.40;5.00;;;5.70;77.50;;;;;;4931946;29;20016;-69
2021/04/29 04:17:44;;;;;;;8.60;4.88;;;5.70;77.70;;;;;;4957755;29;20017;-69
2021/04/29 04:20:11;;;;;;;10.07;4.63;;;5.70;77.70;;;;;;4946380;29;20026;-70
2021/04/29 04:22:36;;;;;;;7.03;4.68;;;5.80;77.50;;;;;;4945738;29;20047;-68
2021/04/29 04:25:03;;;;;;;9.43;4.38;;;5.80;77.50;;;;;;4945794;29;20356;-68
2021/04/29 04:27:28;;;;;;;8.90;4.82;;;5.80;77.60;;;;;;4962452;29;20014;-70
2021/04/29 04:29:54;;;;;;;6.75;3.90;;;5.90;77.30;;;;;;4965089;29;20015;-69
2021/04/29 04:32:20;;;;;;;8.05;4.40;;;5.90;77.90;;;;;;4964802;28;20046;-69
2021/04/29 04:34:45;;;;;;;7.70;4.75;;;5.90;77.20;;;;;;4948280;29;20022;-68
2021/04/29 04:37:11;;;;;;;8.63;5.60;;;5.90;77.20;;;;;;4963720;29;20070;-70
2021/04/29 04:39:36;;;;;;;8.73;4.88;;;5.90;77.20;;;;;;4945665;29;20020;-69
2021/04/29 04:42:03;;;;;;;9.40;4.97;;;5.90;77.30;;;;;;4945586;29;20019;-68
2021/04/29 04:44:29;;;;;;;7.38;4.88;;;5.90;77.20;;;;;;4946610;29;20042;-70
2021/04/29 04:46:54;;;;;;;7.93;5.00;;;5.90;77.10;;;;;;4964333;29;20007;-69
2021/04/29 04:49:20;;;;;;;9.63;5.05;;;5.90;77.00;;;;;;4964598;29;20023;-70
2021/04/29 04:51:47;;;;;;;7.95;4.25;;;5.90;77.80;;;;;;4964576;29;20022;-70
2021/04/29 04:54:13;;;;;;;6.90;4.43;;;6.00;77.00;;;;;;4960390;29;20034;-69
2021/04/29 04:56:39;;;;;;;8.85;5.05;;;6.10;76.90;;;;;;4945713;29;20015;-70
2021/04/29 04:59:04;;;;;;;9.02;5.05;;;6.10;76.80;;;;;;4947362;29;20011;-69
2021/04/29 05:01:30;;;;;;;9.00;4.80;;;6.10;76.60;;;;;;4960446;29;20202;-69
2021/04/29 05:03:56;;;;;;;9.65;4.32;;;6.20;76.50;;;;;;4965428;29;20015;-69
2021/04/29 05:06:21;;;;;;;8.40;4.30;;;6.20;76.50;;;;;;4964404;29;20011;-69
2021/04/29 05:08:47;;;;;;;9.63;4.45;;;6.30;76.40;;;;;;4955512;29;20190;-70
2021/04/29 05:11:13;;;;;;;9.48;4.30;;;6.40;76.00;;;;;;4945693;29;20026;-69
2021/04/29 05:13:38;;;;;;;7.90;4.45;;;6.40;75.80;;;;;;4945678;29;20020;-69
2021/04/29 05:16:04;;;;;;;6.55;4.00;;;6.50;75.90;;;;;;4952371;29;20015;-69
2021/04/29 05:18:30;;;;;;;5.35;3.70;;;6.50;75.50;;;;;;4944133;29;20016;-68
2021/04/29 05:20:55;;;;;;;6.65;3.60;;;6.60;75.90;;;;;;4964013;29;20051;-69
2021/04/29 05:23:21;;;;;;;9.50;3.88;;;6.70;74.90;;;;;;4965398;29;20058;-69
2021/04/29 05:25:47;;;;;;;7.88;4.00;;;6.90;74.70;;;;;;4963441;29;20054;-70
2021/04/29 05:28:12;;;;;;;7.15;4.10;;;6.90;74.00;;;;;;4948360;29;20271;-69
2021/04/29 05:30:38;;;;;;;9.38;4.10;;;6.90;74.20;;;;;;4944925;29;20018;-70
2021/04/29 05:33:04;;;;;;;10.90;4.05;;;7.00;74.00;;;;;;4956847;29;20340;-70
2021/04/29 05:35:29;;;;;;;7.10;3.47;;;6.90;73.90;;;;;;4959126;28;20023;-69
2021/04/29 05:37:55;;;;;;;7.75;3.83;;;7.10;73.60;;;;;;4953492;28;20034;-69
2021/04/29 05:40:22;;;;;;;10.68;3.70;;;7.10;73.50;;;;;;4968573;28;20023;-68
2021/04/29 05:42:47;;;;;;;6.70;3.53;;;7.10;73.20;;;;;;4958158;29;20229;-69
2021/04/29 05:45:13;;;;;;;8.82;3.83;;;7.20;74.10;;;;;;4951573;29;20007;-69
2021/04/29 05:47:40;;;;;;;10.13;4.47;;;7.20;73.00;;;;;;4961935;29;20007;-69
2021/04/29 05:50:06;;;;;;;9.60;4.05;;;7.30;73.00;;;;;;4927871;29;20034;-70
2021/04/29 05:52:32;;;;;;;7.22;4.00;;;7.20;73.20;;;;;;4962355;28;20023;-70
2021/04/29 05:54:57;;;;;;;6.28;3.53;;;7.30;73.10;;;;;;4970208;28;20011;-69
2021/04/29 05:57:23;;;;;;;5.90;3.47;;;7.50;72.80;;;;;;4966819;28;20238;-69
2021/04/29 05:59:49;;;;;;;5.93;3.13;;;7.50;72.50;;;;;;4962808;29;20011;-69
2021/04/29 06:02:14;;;;;;;7.53;3.60;;;7.70;72.20;;;;;;4957517;28;20030;-69
2021/04/29 06:04:40;;;;;;;9.23;3.78;;;7.60;71.80;;;;;;4959296;29;20024;-70
2021/04/29 06:07:06;;;;;;;9.20;4.20;;;7.70;71.60;;;;;;4943213;29;20015;-69
2021/04/29 06:09:32;;;;;;;10.55;4.30;;;7.60;71.70;;;;;;4955807;29;20015;-69
2021/04/29 06:11:59;;;;;;;8.27;3.30;;;7.60;72.00;;;;;;4955017;28;20050;-69
2021/04/29 06:14:25;;;;;;;6.35;3.78;;;7.80;71.60;;;;;;4955570;28;20667;-70
2021/04/29 06:16:50;;;;;;;6.97;3.88;;;7.90;70.90;;;;;;4942703;28;20027;-70
2021/04/29 06:19:16;;;;;;;8.00;3.80;;;7.80;71.10;;;;;;4941665;28;20020;-69
2021/04/29 06:21:43;;;;;;;8.93;4.15;;;7.80;70.70;;;;;;4942062;28;20214;-70
2021/04/29 06:24:09;;;;;;;8.40;4.55;;;7.90;70.60;;;;;;4921529;29;20555;-70
2021/04/29 06:26:34;;;;;;;7.20;3.55;;;8.10;70.40;;;;;;4916446;29;20035;-68
2021/04/29 06:29:00;;;;;;;10.05;3.22;;;8.40;69.40;;;;;;4895751;29;20020;-70
2021/04/29 06:31:25;;;;;;;5.43;2.88;;;8.70;69.00;;;;;;4875819;29;20034;-69
2021/04/29 06:33:51;;;;;;;8.15;3.42;;;9.40;67.50;;;;;;4863845;29;20055;-69
2021/04/29 06:36:17;;;;;;;8.25;3.25;;;9.40;65.70;;;;;;4863111;29;20030;-69
2021/04/29 06:38:42;;;;;;;8.45;3.80;;;9.50;65.10;;;;;;4903891;28;20146;-69
2021/04/29 06:41:08;;;;;;;8.32;3.50;;;9.50;64.80;;;;;;4903801;29;20035;-68
2021/04/29 06:43:34;;;;;;;7.28;2.83;;;9.50;64.40;;;;;;4900264;29;20020;-70
2021/04/29 06:45:59;;;;;;;7.55;3.85;;;9.70;64.10;;;;;;4863064;29;20936;-70
2021/04/29 06:48:25;;;;;;;6.18;2.70;;;9.90;64.10;;;;;;4883489;29;20769;-69
2021/04/29 06:50:50;;;;;;;6.50;3.70;;;10.30;62.60;;;;;;4911564;29;20030;-69
2021/04/29 06:53:16;;;;;;;6.95;3.08;;;10.10;62.00;;;;;;4906822;29;20090;-69
2021/04/29 06:55:42;;;;;;;7.90;2.58;;;10.20;62.40;;;;;;4915716;29;20026;-69
2021/04/29 06:58:07;;;;;;;4.18;2.50;;;10.60;61.50;;;;;;4933365;28;20360;-69
2021/04/29 07:00:34;;;;;;;7.13;2.53;;;10.90;59.80;;;;;;4920572;29;20062;-69
2021/04/29 07:03:00;;;;;;;9.18;2.55;;;11.00;59.50;;;;;;4904637;29;20816;-69
2021/04/29 07:05:26;;;;;;;5.13;2.85;;;10.90;59.60;;;;;;4913183;28;20082;-69
2021/04/29 07:07:52;;;;;;;6.47;3.13;;;10.90;58.90;;;;;;4927641;29;20055;-69
2021/04/29 07:10:18;;;;;;;4.15;2.50;;;10.80;59.40;;;;;;4914250;29;20042;-70
2021/04/29 07:12:44;;;;;;;9.25;3.08;;;10.90;59.10;;;;;;4894868;29;20505;-70
2021/04/29 07:15:10;;;;;;;8.77;3.00;;;10.80;59.40;;;;;;4907286;29;20219;-70
2021/04/29 07:17:36;;;;;;;6.50;3.60;;;10.90;59.00;;;;;;4918882;28;20054;-69
2021/04/29 07:20:02;;;;;;;6.82;3.22;;;10.60;59.10;;;;;;4922035;29;20023;-71
2021/04/29 07:22:27;;;;;;;6.18;3.15;;;10.70;59.60;;;;;;4914468;28;20059;-69
2021/04/29 07:24:53;;;;;;;8.93;3.25;;;10.50;59.50;;;;;;4918129;28;20336;-70
2021/04/29 07:27:18;;;;;;;6.38;2.65;;;10.30;60.10;;;;;;4926616;28;20023;-69
2021/04/29 07:29:44;;;;;;;6.25;3.15;;;10.50;60.20;;;;;;4930661;28;20085;-70
2021/04/29 07:32:10;;;;;;;5.45;2.92;;;10.60;59.30;;;;;;4904538;28;20026;-70
2021/04/29 07:34:36;;;;;;;5.57;2.75;;;10.60;59.50;;;;;;4920210;28;20034;-72
2021/04/29 07:37:03;;;;;;;6.72;3.22;;;10.90;58.90;;;;;;4924631;28;20407;-69
2021/04/29 07:39:29;;;;;;;6.13;3.38;;;10.70;58.60;;;;;;4923128;28;20019;-71
2021/04/29 07:41:55;;;;;;;7.35;3.30;;;10.50;58.40;;;;;;4915239;28;20395;-68
2021/04/29 07:44:21;;;;;;;5.57;3.30;;;10.40;59.20;;;;;;4908921;28;20229;-71
2021/04/29 07:46:46;;;;;;;7.32;3.30;;;10.70;59.00;;;;;;4887674;28;20058;-74
2021/04/29 07:49:12;;;;;;;11.25;2.80;;;10.80;58.70;;;;;;4907954;28;20442;-69
2021/04/29 07:51:37;;;;;;;4.85;2.60;;;11.20;58.20;;;;;;4916224;28;21037;-72
2021/04/29 07:54:04;;;;;;;6.97;2.92;;;11.50;57.70;;;;;;4929849;28;20593;-73
2021/04/29 07:56:30;;;;;;;6.22;2.20;;;11.80;56.80;;;;;;4913631;28;20499;-75
2021/04/29 07:58:56;;;;;;;6.80;3.08;;;12.30;56.50;;;;;;4895833;28;20034;-72
2021/04/29 08:01:21;;;;;;;5.15;2.60;;;12.20;54.70;;;;;;4884964;28;21024;-73
2021/04/29 08:03:47;;;;;;;4.22;2.63;;;12.20;55.30;;;;;;4898562;28;20051;-70
2021/04/29 08:06:13;;;;;;;8.43;2.95;;;12.80;54.30;;;;;;4903050;28;20082;-70
2021/04/29 08:08:38;;;;;;;4.85;2.65;;;12.90;53.50;;;;;;4921100;28;20135;-72
2021/04/29 08:11:04;;;;;;;4.03;2.60;;;13.00;53.00;;;;;;4923411;28;20034;-72
2021/04/29 08:13:30;;;;;;;6.35;2.70;;;12.80;53.20;;;;;;4913806;28;20059;-69
2021/04/29 08:15:56;;;;;;;4.80;2.08;;;12.90;53.40;;;;;;4916121;28;20015;-70
2021/04/29 08:18:21;;;;;;;6.30;2.72;;;13.10;53.20;;;;;;4935936;28;20333;-71
2021/04/29 08:20:47;;;;;;;4.63;2.20;;;13.00;52.70;;;;;;4921671;28;21100;-71
2021/04/29 08:23:13;;;;;;;7.70;3.05;;;13.60;52.60;;;;;;4930832;28;20059;-75
2021/04/29 08:25:38;;;;;;;4.53;2.70;;;14.00;50.70;;;;;;4926257;28;20019;-73
2021/04/29 08:28:04;;;;;;;6.40;2.55;;;14.10;49.80;;;;;;4923984;28;20021;-73
2021/04/29 08:30:30;;;;;;;7.50;3.70;;;14.20;49.30;;;;;;4934132;28;20102;-73
2021/04/29 08:32:56;;;;;;;7.55;3.00;;;13.60;49.80;;;;;;4931011;28;20046;-74
2021/04/29 08:35:21;;;;;;;4.25;2.53;;;13.50;51.10;;;;;;4918842;28;20038;-74
2021/04/29 08:37:47;;;;;;;4.15;2.40;;;13.50;51.10;;;;;;4931229;28;20023;-71
2021/04/29 08:40:13;;;;;;;5.35;2.50;;;14.00;50.60;;;;;;4936289;28;20030;-74
2021/04/29 08:42:41;;;;;;;6.22;2.92;;;14.30;49.70;;;;;;4936808;28;20031;-72
2021/04/29 08:45:09;;;;;;;3.35;1.98;;;14.00;49.40;;;;;;4931644;28;20051;-72
2021/04/29 08:47:35;;;;;;;5.40;2.78;;;14.20;50.00;;;;;;4945046;28;20031;-71
2021/04/29 08:50:00;;;;;;;4.55;2.50;;;13.70;49.70;;;;;;4928590;28;20023;-70
2021/04/29 08:52:26;;;;;;;5.53;2.85;;;13.70;50.40;;;;;;4914267;28;20317;-70
2021/04/29 08:54:52;;;;;;;6.65;3.28;;;13.90;49.10;;;;;;4936352;28;20042;-73
2021/04/29 08:57:17;;;;;;;5.57;3.15;;;13.70;49.40;;;;;;4925131;28;20094;-71
2021/04/29 08:59:43;;;;;;;7.28;3.67;;;13.60;49.90;;;;;;4933539;28;20019;-74
2021/04/29 09:02:09;;;;;;;5.15;2.80;;;13.80;50.00;;;;;;4926906;28;20932;-72
2021/04/29 09:04:42;;;;;;;6.70;3.15;;;14.00;49.60;;;;;;4910483;28;20023;-73
2021/04/29 09:07:12;;;;;;;5.47;3.45;;;13.90;49.40;;;;;;4935940;28;20094;-73
2021/04/29 09:09:44;;;;;;;6.32;2.80;;;13.60;49.80;;;;;;4926000;28;20432;-73
2021/04/29 09:12:10;;;;;;;6.07;3.30;;;13.80;49.40;;;;;;4920966;28;20380;-74
2021/04/29 09:14:37;;;;;;;6.50;3.33;;;13.50;50.20;;;;;;4933431;28;20026;-73
2021/04/29 09:17:03;;;;;;;8.02;3.65;;;13.50;50.00;;;;;;4930038;28;20552;-73
2021/04/29 09:19:30;;;;;;;4.35;2.67;;;13.80;50.10;;;;;;4923450;28;20126;-73
2021/04/29 09:21:56;;;;;;;5.07;3.28;;;14.40;48.60;;;;;;4905336;29;20069;-73
2021/04/29 09:24:38;;;;;;;6.25;2.70;;;14.20;48.20;;;;;;4905411;28;20061;-74
2021/04/29 09:27:17;;;;;;;6.07;3.50;;;14.60;48.40;;;;;;4926082;28;20023;-74
2021/04/29 09:29:57;;;;;;;5.35;3.60;;;14.50;46.70;;;;;;4892407;28;20146;-73
2021/04/29 09:32:24;;;;;;;5.63;3.45;;;14.40;45.50;;;;;;4917315;28;20526;-74
2021/04/29 09:34:49;;;;;;;5.65;2.92;;;14.40;46.80;;;;;;4897154;29;20020;-73
2021/04/29 09:37:35;;;;;;;7.05;3.60;;;15.00;45.70;;;;;;4914471;28;21002;-71
2021/04/29 09:40:05;;;;;;;4.85;3.13;;;14.40;45.60;;;;;;4915546;28;21616;-71
2021/04/29 09:42:33;;;;;;;5.32;3.40;;;14.80;46.00;;;;;;4869697;28;20264;-73
2021/04/29 09:44:59;;;;;;;10.55;4.32;;;15.10;44.50;;;;;;4884108;28;20023;-73
2021/04/29 09:47:24;;;;;;;6.18;3.22;;;14.60;44.00;;;;;;4905327;28;20035;-70
2021/04/29 09:49:50;;;;;;;7.35;4.00;;;14.80;44.10;;;;;;4829747;28;20366;-70
2021/04/29 09:52:26;;;;;;;9.70;3.58;;;14.70;43.50;;;;;;4887270;28;20534;-69
2021/04/29 09:54:53;;;;;;;6.53;3.70;;;14.70;44.00;;;;;;4868645;28;20122;-71
2021/04/29 09:57:23;;;;;;;5.85;3.65;;;15.00;44.00;;;;;;4865294;28;20659;-73
2021/04/29 09:59:53;;;;;;;6.32;3.30;;;14.90;43.00;;;;;;4874409;28;20019;-73
2021/04/29 10:02:19;;;;;;;7.85;4.68;;;14.70;43.70;;;;;;4896953;28;20035;-74
2021/04/29 10:04:46;;;;;;;7.53;4.45;;;14.50;42.20;;;;;;4871905;28;21396;-74
2021/04/29 10:07:12;;;;;;;5.90;4.32;;;14.00;44.10;;;;;;4882110;28;21022;-74
2021/04/29 10:09:38;;;;;;;5.82;3.78;;;14.10;44.00;;;;;;4885197;28;20019;-74
2021/04/29 10:12:06;;;;;;;8.43;3.90;;;14.20;44.10;;;;;;4895299;28;20114;-73
2021/04/29 10:14:36;;;;;;;6.95;4.05;;;14.30;44.30;;;;;;4888798;28;20043;-75
2021/04/29 10:17:03;;;;;;;5.93;3.75;;;14.20;44.10;;;;;;4905295;28;20023;-75
2021/04/29 10:19:30;;;;;;;6.88;3.50;;;14.10;45.30;;;;;;4911790;28;20019;-75
2021/04/29 10:21:55;;;;;;;7.32;3.20;;;14.20;44.60;;;;;;4908173;28;20035;-73
2021/04/29 10:24:21;;;;;;;5.05;3.45;;;14.30;44.40;;;;;;4918466;28;20031;-77
2021/04/29 10:26:46;;;;;;;7.03;4.70;;;14.40;43.50;;;;;;4907049;28;20051;-75
2021/04/29 10:29:13;;;;;;;8.30;3.92;;;14.20;43.60;;;;;;4900904;28;20611;-77
2021/04/29 10:31:39;;;;;;;6.18;4.22;;;13.90;44.30;;;;;;4890086;28;20026;-71
2021/04/29 10:34:11;;;;;;;6.45;4.20;;;13.90;44.20;;;;;;4896403;28;20025;-73
2021/04/29 10:36:42;;;;;;;7.03;4.55;;;13.90;44.30;;;;;;4920165;28;20952;-71
2021/04/29 10:39:26;;;;;;;6.35;4.25;;;13.90;43.70;;;;;;4884900;28;20022;-71
2021/04/29 10:42:06;;;;;;;5.63;3.70;;;13.70;44.40;;;;;;4877317;28;21184;-72
2021/04/29 10:44:45;;;;;;;5.95;3.90;;;13.80;45.00;;;;;;4905486;28;20544;-73
2021/04/29 10:47:22;;;;;;;8.10;3.60;;;14.10;44.00;;;;;;4896542;28;20036;-70
2021/04/29 10:49:47;;;;;;;9.32;4.28;;;14.50;44.00;;;;;;4874242;28;20223;-74
2021/04/29 10:52:13;;;;;;;4.95;3.33;;;15.00;43.20;;;;;;4880951;28;20688;-70
2021/04/29 10:54:48;;;;;;;7.78;4.22;;;15.70;41.00;;;;;;4876052;28;20031;-74
2021/04/29 10:57:16;;;;;;;4.63;3.65;;;16.00;40.20;;;;;;4899833;28;20062;-75
2021/04/29 10:59:42;;;;;;;6.65;3.50;;;16.10;39.70;;;;;;4894978;28;20126;-72
2021/04/29 11:02:30;;;;;;;6.57;3.75;;;16.20;38.10;;;;;;4883001;28;20041;-73
2021/04/29 11:04:56;;;;;;;6.18;3.38;;;16.20;38.00;;;;;;4896964;28;21462;-73
2021/04/29 11:07:23;;;;;;;6.00;2.63;;;16.20;38.30;;;;;;4871561;28;20293;-74
2021/04/29 11:10:05;;;;;;;6.18;3.00;;;16.40;38.00;;;;;;4885243;28;20019;-76
2021/04/29 11:12:50;;;;;;;4.82;3.13;;;16.50;38.10;;;;;;4882345;28;20093;-74
2021/04/29 11:15:19;;;;;;;7.00;4.10;;;16.20;37.80;;;;;;4916313;28;20015;-73
2021/04/29 11:17:45;;;;;;;8.57;3.85;;;15.60;39.30;;;;;;4900538;28;20023;-74
2021/04/29 11:20:11;;;;;;;6.57;3.83;;;15.30;39.30;;;;;;4877708;28;20045;-73
2021/04/29 11:22:44;;;;;;;6.53;3.40;;;15.00;39.90;;;;;;4895513;28;20111;-74
2021/04/29 11:25:10;;;;;;;6.20;3.83;;;15.00;40.00;;;;;;4845346;29;20112;-73
2021/04/29 11:27:38;;;;;;;7.20;4.72;;;15.10;40.00;;;;;;4870821;28;20246;-74
2021/04/29 11:30:08;;;;;;;5.07;3.40;;;14.90;40.30;;;;;;4863896;28;21085;-73
2021/04/29 11:32:35;;;;;;;6.43;2.90;;;15.00;40.30;;;;;;4886562;28;21942;-73
2021/04/29 11:35:02;;;;;;;8.02;4.00;;;15.20;40.20;;;;;;4889809;28;20220;-73
2021/04/29 11:37:31;;;;;;;5.50;3.78;;;15.30;39.70;;;;;;4878225;28;20023;-73
2021/04/29 11:40:00;;;;;;;6.28;3.88;;;15.20;39.50;;;;;;4884683;28;20376;-73
2021/04/29 11:42:30;;;;;;;7.80;3.58;;;15.10;39.50;;;;;;4895780;28;20050;-73
2021/04/29 11:45:06;;;;;;;6.10;3.10;;;15.10;39.70;;;;;;4893346;29;20668;-73
2021/04/29 11:47:32;;;;;;;7.20;4.22;;;15.20;39.80;;;;;;4879883;29;20062;-73
2021/04/29 11:49:58;;;;;;;7.10;4.10;;;15.20;39.50;;;;;;4893101;28;20062;-73
2021/04/29 11:52:24;;;;;;;8.23;4.43;;;15.10;39.60;;;;;;4905032;28;20527;-74
2021/04/29 11:54:50;;;;;;;6.45;3.47;;;15.20;39.90;;;;;;4913535;28;20065;-74
2021/04/29 11:57:16;;;;;;;6.13;3.88;;;15.40;39.90;;;;;;4924598;28;20329;-73
2021/04/29 11:59:41;;;;;;;9.45;5.03;;;15.60;38.50;;;;;;4917165;28;20314;-73
2021/04/29 12:02:08;;;;;;;7.00;3.65;;;15.50;38.60;;;;;;4896012;28;20946;-73
2021/04/29 12:04:33;;;;;;;7.95;3.92;;;15.50;38.70;;;;;;4858882;28;20035;-73
2021/04/29 12:07:01;;;;;;;6.15;3.63;;;15.50;38.80;;;;;;4898139;28;20159;-73
2021/04/29 12:09:27;;;;;;;5.95;3.63;;;15.40;39.00;;;;;;4893840;29;20024;-73
2021/04/29 12:11:53;;;;;;;8.27;3.95;;;15.40;39.10;;;;;;4894315;28;20034;-74
2021/04/29 12:14:26;;;;;;;4.03;2.60;;;15.30;38.40;;;;;;4899169;28;20019;-73
2021/04/29 12:17:02;;;;;;;5.35;3.00;;;15.30;38.50;;;;;;4927329;28;20111;-73
2021/04/29 12:19:28;;;;;;;5.60;2.63;;;15.20;38.90;;;;;;4890521;28;20390;-73
2021/04/29 12:21:54;;;;;;;7.57;3.25;;;15.20;38.70;;;;;;4914543;28;20143;-73
2021/04/29 12:24:20;;;;;;;6.30;3.97;;;15.10;38.40;;;;;;4923071;28;20344;-74
2021/04/29 12:26:46;;;;;;;6.57;3.65;;;15.00;39.10;;;;;;4908316;28;20399;-74
2021/04/29 12:29:19;;;;;;;6.47;3.90;;;15.10;39.60;;;;;;4898716;28;20206;-74
2021/04/29 12:31:53;;;;;;;7.45;3.17;;;15.10;39.40;;;;;;4889772;28;20790;-73
2021/04/29 12:34:19;;;;;;;6.65;3.10;;;15.10;39.40;;;;;;4910863;28;21083;-73
2021/04/29 12:37:05;;;;;;;5.18;2.90;;;15.20;39.10;;;;;;4925017;28;20336;-74
2021/04/29 12:39:33;;;;;;;5.05;3.20;;;15.10;39.80;;;;;;4908610;28;20277;-73
2021/04/29 12:42:06;;;;;;;10.27;3.88;;;15.20;39.50;;;;;;4913291;29;20042;-74
2021/04/29 12:44:45;;;;;;;7.72;3.97;;;15.10;39.60;;;;;;4906473;29;20110;-74
2021/04/29 12:47:12;;;;;;;9.43;3.67;;;15.10;39.80;;;;;;4898371;28;20043;-74
2021/04/29 12:49:38;;;;;;;7.15;3.40;;;15.10;39.10;;;;;;4904379;28;21129;-73